createdAt,value
2022-11-21T00:00:56.048Z,95476.16
2022-11-21T00:01:57.642Z,95474.59
2022-11-21T00:03:03.816Z,95479.22
2022-11-21T00:04:05.358Z,95480.75
2022-11-21T00:05:07.349Z,95465.38
2022-11-21T00:06:08.915Z,95470.78
2022-11-21T00:07:10.641Z,95456.13
2022-11-21T00:08:14.743Z,95465.38
2022-11-21T00:09:16.367Z,95465.38
2022-11-21T00:10:18.063Z,95457.69
2022-11-21T00:11:19.634Z,95472.31
2022-11-21T00:12:21.185Z,95474.59
2022-11-21T00:13:22.706Z,95477.28
2022-11-21T00:14:24.602Z,95476.91
2022-11-21T00:15:27.061Z,95470.34
2022-11-21T00:16:28.558Z,95485.38
2022-11-21T00:17:30.129Z,95481.50
2022-11-21T00:18:34.316Z,95482.28
2022-11-21T00:19:35.823Z,95479.97
2022-11-21T00:20:37.719Z,95486.50
2022-11-21T00:21:39.261Z,95477.69
2022-11-21T00:22:40.803Z,95476.88
2022-11-21T00:23:43.721Z,95479.59
2022-11-21T00:24:45.254Z,95482.28
2022-11-21T00:25:46.783Z,95475.34
2022-11-21T00:26:48.321Z,95481.91
2022-11-21T00:27:49.890Z,95492.31
2022-11-21T00:28:51.419Z,95488.06
2022-11-21T00:29:52.925Z,95489.22
2022-11-21T00:30:54.523Z,95489.25
2022-11-21T00:31:56.098Z,95490.00
2022-11-21T00:33:00.751Z,95487.69
2022-11-21T00:34:02.453Z,95490.75
2022-11-21T00:35:04.847Z,95484.59
2022-11-21T00:36:10.274Z,95490.38
2022-11-21T00:37:11.851Z,95485.38
2022-11-21T00:38:13.374Z,95487.69
2022-11-21T00:39:14.868Z,95489.59
2022-11-21T00:40:17.407Z,95485.38
2022-11-21T00:41:18.996Z,95491.50
2022-11-21T00:42:20.571Z,95495.38
2022-11-21T00:43:22.074Z,95505.41
2022-11-21T00:44:23.633Z,95502.28
2022-11-21T00:45:25.159Z,95511.16
2022-11-21T00:46:26.694Z,95507.31
2022-11-21T00:47:28.270Z,95505.38
2022-11-21T00:48:31.107Z,95503.09
2022-11-21T00:49:32.679Z,95501.56
2022-11-21T00:50:34.279Z,95491.16
2022-11-21T00:51:35.897Z,95495.78
2022-11-21T00:52:37.447Z,95488.06
2022-11-21T00:53:39.052Z,95486.53
2022-11-21T00:54:40.606Z,95491.16
2022-11-21T00:55:42.763Z,95498.06
2022-11-21T00:56:44.324Z,95492.31
2022-11-21T00:57:45.835Z,95490.00
2022-11-21T00:58:47.381Z,95497.66
2022-11-21T00:59:48.993Z,95496.91
2022-11-21T01:00:50.755Z,95491.13
2022-11-21T01:01:52.546Z,95479.97
2022-11-21T01:02:54.078Z,95486.91
2022-11-21T01:03:55.587Z,95471.50
2022-11-21T01:04:57.117Z,95471.50
2022-11-21T01:06:09.294Z,95469.22
2022-11-21T01:07:14.263Z,95471.91
2022-11-21T01:08:15.790Z,95475.75
2022-11-21T01:09:17.333Z,95470.34
2022-11-21T01:10:18.973Z,95472.66
2022-11-21T01:11:21.218Z,95477.69
2022-11-21T01:12:22.756Z,95474.59
2022-11-21T01:13:24.335Z,95469.22
2022-11-21T01:14:26.320Z,95462.66
2022-11-21T01:15:28.186Z,95464.59
2022-11-21T01:16:30.158Z,95466.91
2022-11-21T01:17:33.318Z,95463.47
2022-11-21T01:18:35.672Z,95456.13
2022-11-21T01:19:37.255Z,95451.50
2022-11-21T01:20:40.439Z,95446.91
2022-11-21T01:21:42.018Z,95445.38
2022-11-21T01:22:43.608Z,95445.38
2022-11-21T01:23:45.330Z,95434.59
2022-11-21T01:24:47.095Z,95441.13
2022-11-21T01:25:48.654Z,95444.59
2022-11-21T01:26:51.138Z,95454.59
2022-11-21T01:27:52.802Z,95444.59
2022-11-21T01:28:54.902Z,95447.31
2022-11-21T01:29:56.453Z,95459.22
2022-11-21T01:31:04.931Z,95453.06
2022-11-21T01:32:06.480Z,95460.00
2022-11-21T01:33:08.017Z,95453.06
2022-11-21T01:34:09.515Z,95450.38
2022-11-21T01:35:11.069Z,95453.06
2022-11-21T01:36:15.658Z,95441.50
2022-11-21T01:37:17.175Z,95444.59
2022-11-21T01:38:18.712Z,95445.34
2022-11-21T01:39:20.238Z,95450.72
2022-11-21T01:40:21.822Z,95459.59
2022-11-21T01:41:33.521Z,95458.44
2022-11-21T01:42:53.736Z,95465.38
2022-11-21T01:43:55.359Z,95463.06
2022-11-21T01:44:56.886Z,95469.59
2022-11-21T01:45:59.918Z,95469.22
2022-11-21T01:47:01.482Z,95459.59
2022-11-21T01:48:03.038Z,95455.38
2022-11-21T01:49:32.166Z,95461.53
2022-11-21T01:50:33.684Z,95459.22
2022-11-21T01:51:49.249Z,95459.97
2022-11-21T01:52:50.839Z,95461.53
2022-11-21T01:54:36.900Z,95458.03
2022-11-21T01:55:38.510Z,95456.88
2022-11-21T01:56:51.146Z,95456.88
2022-11-21T01:57:52.735Z,95458.44
2022-11-21T01:58:59.209Z,95453.06
2022-11-21T02:00:02.821Z,95454.19
2022-11-21T02:01:04.489Z,95450.72
2022-11-21T02:02:08.671Z,95446.13
2022-11-21T02:03:15.017Z,95457.69
2022-11-21T02:04:17.131Z,95456.13
2022-11-21T02:05:25.271Z,95453.81
2022-11-21T02:06:27.920Z,95451.53
2022-11-21T02:07:34.719Z,95452.31
2022-11-21T02:08:37.498Z,95447.66
2022-11-21T02:09:43.573Z,95455.75
2022-11-21T02:11:29.851Z,95455.38
2022-11-21T02:12:40.706Z,95447.28
2022-11-21T02:13:42.341Z,95444.59
2022-11-21T02:14:44.534Z,95450.38
2022-11-21T02:15:46.303Z,95454.59
2022-11-21T02:16:47.943Z,95449.19
2022-11-21T02:17:49.905Z,95448.44
2022-11-21T02:18:51.911Z,95449.59
2022-11-21T02:19:58.260Z,95453.81
2022-11-21T02:21:38.855Z,95456.16
2022-11-21T02:22:55.452Z,95455.75
2022-11-21T02:24:29.017Z,95452.66
2022-11-21T02:25:33.945Z,95447.28
2022-11-21T02:26:35.775Z,95443.03
2022-11-21T02:27:37.853Z,95441.53
2022-11-21T02:28:39.577Z,95445.00
2022-11-21T02:29:41.116Z,95456.13
2022-11-21T02:30:43.602Z,95448.81
2022-11-21T02:31:45.275Z,95445.75
2022-11-21T02:32:47.259Z,95445.38
2022-11-21T02:33:48.819Z,95449.59
2022-11-21T02:34:50.724Z,95443.84
2022-11-21T02:36:00.287Z,95449.97
2022-11-21T02:37:02.469Z,95451.53
2022-11-21T02:38:11.573Z,95446.91
2022-11-21T02:39:37.528Z,95447.66
2022-11-21T02:40:48.724Z,95447.66
2022-11-21T02:41:57.657Z,95456.91
2022-11-21T02:43:06.410Z,95465.38
2022-11-21T02:44:24.602Z,95457.69
2022-11-21T02:45:35.812Z,95462.69
2022-11-21T02:46:47.327Z,95464.59
2022-11-21T02:47:52.419Z,95456.13
2022-11-21T02:48:54.883Z,95458.84
2022-11-21T02:50:12.913Z,95454.59
2022-11-21T02:51:14.447Z,95439.22
2022-11-21T02:52:16.009Z,95439.22
2022-11-21T02:53:19.451Z,95445.38
2022-11-21T02:54:20.966Z,95446.91
2022-11-21T02:55:23.646Z,95455.38
2022-11-21T02:56:25.278Z,95443.81
2022-11-21T02:57:27.319Z,95451.13
2022-11-21T02:58:28.863Z,95449.59
2022-11-21T02:59:30.425Z,95459.22
2022-11-21T03:00:33.149Z,95456.13
2022-11-21T03:01:34.688Z,95456.91
2022-11-21T03:02:36.394Z,95456.91
2022-11-21T03:03:37.975Z,95443.03
2022-11-21T03:04:39.558Z,95453.84
2022-11-21T03:05:41.745Z,95447.66
2022-11-21T03:06:43.278Z,95442.25
2022-11-21T03:07:45.746Z,95437.28
2022-11-21T03:08:47.242Z,95446.53
2022-11-21T03:09:48.839Z,95436.88
2022-11-21T03:10:50.382Z,95439.19
2022-11-21T03:11:51.903Z,95439.97
2022-11-21T03:13:01.195Z,95433.44
2022-11-21T03:14:03.166Z,95431.50
2022-11-21T03:15:07.323Z,95435.72
2022-11-21T03:16:08.852Z,95444.94
2022-11-21T03:17:10.460Z,95438.78
2022-11-21T03:18:12.018Z,95440.34
2022-11-21T03:19:13.580Z,95437.63
2022-11-21T03:20:15.382Z,95427.63
2022-11-21T03:21:17.071Z,95440.72
2022-11-21T03:22:18.969Z,95429.94
2022-11-21T03:23:20.549Z,95428.78
2022-11-21T03:24:22.117Z,95421.47
2022-11-21T03:25:23.679Z,95418.38
2022-11-21T03:26:25.262Z,95422.22
2022-11-21T03:27:27.221Z,95426.09
2022-11-21T03:28:28.811Z,95428.03
2022-11-21T03:29:30.449Z,95432.28
2022-11-21T03:30:32.784Z,95426.09
2022-11-21T03:31:34.400Z,95436.50
2022-11-21T03:32:35.960Z,95439.56
2022-11-21T03:33:37.517Z,95441.50
2022-11-21T03:34:39.055Z,95448.06
2022-11-21T03:35:40.620Z,95445.34
2022-11-21T03:36:42.198Z,95450.34
2022-11-21T03:37:43.766Z,95443.81
2022-11-21T03:38:45.303Z,95449.97
2022-11-21T03:39:46.906Z,95446.88
2022-11-21T03:40:48.542Z,95447.66
2022-11-21T03:41:50.121Z,95451.50
2022-11-21T03:42:51.695Z,95441.50
2022-11-21T03:43:53.476Z,95447.66
2022-11-21T03:44:55.009Z,95446.91
2022-11-21T03:45:56.511Z,95449.97
2022-11-21T03:46:58.053Z,95455.34
2022-11-21T03:47:59.586Z,95463.81
2022-11-21T03:49:01.663Z,95460.38
2022-11-21T03:50:03.337Z,95452.28
2022-11-21T03:51:04.875Z,95467.31
2022-11-21T03:52:06.454Z,95450.72
2022-11-21T03:53:08.050Z,95465.38
2022-11-21T03:54:10.546Z,95459.97
2022-11-21T03:55:12.051Z,95462.28
2022-11-21T03:56:13.709Z,95457.66
2022-11-21T03:57:15.268Z,95457.69
2022-11-21T03:58:16.881Z,95455.38
2022-11-21T03:59:18.410Z,95457.66
2022-11-21T04:00:20.079Z,95456.91
2022-11-21T04:01:22.215Z,95453.81
2022-11-21T04:02:23.904Z,95457.28
2022-11-21T04:03:25.473Z,95454.22
2022-11-21T04:04:27.249Z,95446.13
2022-11-21T04:05:28.971Z,95451.50
2022-11-21T04:06:31.487Z,95444.97
2022-11-21T04:07:33.080Z,95450.34
2022-11-21T04:08:34.741Z,95443.81
2022-11-21T04:09:36.320Z,95451.91
2022-11-21T04:10:37.849Z,95456.91
2022-11-21T04:11:39.407Z,95444.19
2022-11-21T04:12:40.930Z,95456.13
2022-11-21T04:13:42.498Z,95451.53
2022-11-21T04:14:44.085Z,95443.44
2022-11-21T04:15:46.703Z,95436.91
2022-11-21T04:16:48.261Z,95441.50
2022-11-21T04:17:49.843Z,95438.81
2022-11-21T04:18:51.415Z,95446.91
2022-11-21T04:19:52.984Z,95441.91
2022-11-21T04:21:05.937Z,95439.97
2022-11-21T04:22:07.502Z,95439.56
2022-11-21T04:23:09.255Z,95442.25
2022-11-21T04:24:10.974Z,95448.44
2022-11-21T04:25:13.801Z,95440.72
2022-11-21T04:26:15.391Z,95453.81
2022-11-21T04:27:16.889Z,95449.56
2022-11-21T04:28:18.816Z,95446.88
2022-11-21T04:29:20.351Z,95447.66
2022-11-21T04:30:21.893Z,95452.66
2022-11-21T04:31:23.481Z,95464.97
2022-11-21T04:32:25.024Z,95470.34
2022-11-21T04:33:26.590Z,95473.06
2022-11-21T04:34:28.639Z,95468.44
2022-11-21T04:35:30.414Z,95474.97
2022-11-21T04:36:32.065Z,95477.69
2022-11-21T04:37:33.836Z,95474.59
2022-11-21T04:38:35.652Z,95473.06
2022-11-21T04:39:37.194Z,95479.22
2022-11-21T04:40:38.912Z,95476.50
2022-11-21T04:41:40.436Z,95480.38
2022-11-21T04:42:45.957Z,95477.69
2022-11-21T04:43:47.666Z,95473.81
2022-11-21T04:44:49.192Z,95489.63
2022-11-21T04:45:50.811Z,95480.00
2022-11-21T04:46:53.209Z,95476.16
2022-11-21T04:47:54.773Z,95490.00
2022-11-21T04:48:56.380Z,95475.75
2022-11-21T04:49:57.974Z,95483.06
2022-11-21T04:50:59.916Z,95480.78
2022-11-21T04:52:01.890Z,95492.31
2022-11-21T04:53:03.613Z,95492.31
2022-11-21T04:54:05.263Z,95499.22
2022-11-21T04:55:07.176Z,95494.63
2022-11-21T04:56:08.842Z,95492.31
2022-11-21T04:57:10.378Z,95501.16
2022-11-21T04:58:11.959Z,95504.63
2022-11-21T04:59:13.544Z,95506.16
2022-11-21T05:00:22.609Z,95501.53
2022-11-21T05:01:25.678Z,95518.47
2022-11-21T05:02:27.260Z,95505.38
2022-11-21T05:03:28.786Z,95505.38
2022-11-21T05:04:30.508Z,95507.31
2022-11-21T05:05:32.807Z,95506.94
2022-11-21T05:06:34.692Z,95519.63
2022-11-21T05:07:36.580Z,95510.00
2022-11-21T05:08:38.115Z,95513.84
2022-11-21T05:09:39.662Z,95515.00
2022-11-21T05:11:00.131Z,95511.94
2022-11-21T05:12:20.304Z,95515.41
2022-11-21T05:13:21.876Z,95520.78
2022-11-21T05:14:26.546Z,95511.56
2022-11-21T05:15:28.628Z,95518.09
2022-11-21T05:16:30.163Z,95512.31
2022-11-21T05:17:31.790Z,95517.72
2022-11-21T05:18:33.363Z,95522.69
2022-11-21T05:19:34.943Z,95518.84
2022-11-21T05:20:37.065Z,95516.94
2022-11-21T05:21:38.733Z,95523.09
2022-11-21T05:22:40.360Z,95524.66
2022-11-21T05:23:41.887Z,95522.31
2022-11-21T05:24:43.391Z,95519.25
2022-11-21T05:25:44.935Z,95530.78
2022-11-21T05:26:46.578Z,95530.78
2022-11-21T05:27:48.095Z,95536.59
2022-11-21T05:28:49.626Z,95528.88
2022-11-21T05:29:51.139Z,95540.03
2022-11-21T05:30:52.648Z,95544.66
2022-11-21T05:31:54.218Z,95536.56
2022-11-21T05:32:55.768Z,95533.88
2022-11-21T05:33:57.461Z,95535.41
2022-11-21T05:34:58.996Z,95537.72
2022-11-21T05:36:00.520Z,95540.03
2022-11-21T05:37:02.104Z,95543.13
2022-11-21T05:38:03.916Z,95545.41
2022-11-21T05:39:05.743Z,95540.81
2022-11-21T05:40:07.993Z,95544.66
2022-11-21T05:41:09.570Z,95542.34
2022-11-21T05:42:11.139Z,95533.88
2022-11-21T05:43:31.534Z,95538.47
2022-11-21T05:44:33.070Z,95536.97
2022-11-21T05:45:34.627Z,95546.19
2022-11-21T05:46:36.217Z,95548.91
2022-11-21T05:47:37.822Z,95536.56
2022-11-21T05:48:39.882Z,95545.44
2022-11-21T05:49:41.414Z,95545.44
2022-11-21T05:50:42.994Z,95538.50
2022-11-21T05:51:44.610Z,95544.66
2022-11-21T05:52:46.186Z,95541.56
2022-11-21T05:53:48.116Z,95535.78
2022-11-21T05:54:49.672Z,95542.34
2022-11-21T05:55:51.218Z,95535.41
2022-11-21T05:56:52.749Z,95551.59
2022-11-21T05:57:54.251Z,95554.28
2022-11-21T05:58:57.042Z,95555.06
2022-11-21T05:59:58.568Z,95548.50
2022-11-21T06:01:00.522Z,95545.03
2022-11-21T06:02:20.337Z,95548.50
2022-11-21T06:03:27.575Z,95548.50
2022-11-21T06:04:29.579Z,95546.19
2022-11-21T06:05:31.389Z,95544.25
2022-11-21T06:06:33.194Z,95540.00
2022-11-21T06:07:34.784Z,95551.56
2022-11-21T06:08:39.452Z,95549.25
2022-11-21T06:09:40.963Z,95545.41
2022-11-21T06:10:42.505Z,95547.69
2022-11-21T06:11:44.224Z,95550.00
2022-11-21T06:12:45.761Z,95537.69
2022-11-21T06:13:47.340Z,95550.00
2022-11-21T06:14:48.907Z,95558.47
2022-11-21T06:15:53.562Z,95555.78
2022-11-21T06:16:55.067Z,95559.25
2022-11-21T06:17:56.598Z,95567.72
2022-11-21T06:18:58.956Z,95572.34
2022-11-21T06:20:00.622Z,95578.50
2022-11-21T06:21:08.230Z,95571.56
2022-11-21T06:22:09.837Z,95575.41
2022-11-21T06:23:12.575Z,95564.63
2022-11-21T06:24:17.049Z,95568.50
2022-11-21T06:25:22.411Z,95570.78
2022-11-21T06:26:25.931Z,95575.00
2022-11-21T06:27:29.298Z,95571.56
2022-11-21T06:28:33.768Z,95576.56
2022-11-21T06:29:35.329Z,95570.75
2022-11-21T06:30:37.513Z,95582.31
2022-11-21T06:31:39.060Z,95583.84
2022-11-21T06:32:40.630Z,95587.69
2022-11-21T06:33:43.142Z,95595.41
2022-11-21T06:34:44.700Z,95594.63
2022-11-21T06:35:46.294Z,95597.31
2022-11-21T06:36:47.966Z,95589.66
2022-11-21T06:37:53.561Z,95588.09
2022-11-21T06:38:56.711Z,95590.41
2022-11-21T06:39:58.820Z,95600.00
2022-11-21T06:41:10.509Z,95596.94
2022-11-21T06:42:12.021Z,95601.56
2022-11-21T06:43:13.763Z,95606.22
2022-11-21T06:44:15.258Z,95608.50
2022-11-21T06:45:17.128Z,95606.94
2022-11-21T06:46:19.481Z,95618.50
2022-11-21T06:47:21.085Z,95620.44
2022-11-21T06:48:22.766Z,95606.97
2022-11-21T06:49:24.329Z,95606.97
2022-11-21T06:50:25.948Z,95612.38
2022-11-21T06:51:27.545Z,95617.75
2022-11-21T06:52:29.108Z,95618.53
2022-11-21T06:53:30.654Z,95627.00
2022-11-21T06:54:32.357Z,95625.47
2022-11-21T06:55:34.094Z,95640.47
2022-11-21T06:56:35.582Z,95634.34
2022-11-21T06:57:37.458Z,95633.19
2022-11-21T06:58:39.020Z,95638.19
2022-11-21T06:59:40.575Z,95644.38
2022-11-21T07:00:42.281Z,95637.06
2022-11-21T07:01:43.860Z,95640.13
2022-11-21T07:02:45.533Z,95647.81
2022-11-21T07:03:47.105Z,95646.31
2022-11-21T07:04:48.695Z,95638.59
2022-11-21T07:05:52.237Z,95644.75
2022-11-21T07:06:53.781Z,95643.22
2022-11-21T07:08:02.479Z,95642.06
2022-11-21T07:09:32.112Z,95643.25
2022-11-21T07:10:25.594Z,95647.06
2022-11-21T07:11:27.210Z,95653.25
2022-11-21T07:12:47.196Z,95644.41
2022-11-21T07:13:48.780Z,95650.16
2022-11-21T07:14:50.358Z,95649.41
2022-11-21T07:15:54.381Z,95650.16
2022-11-21T07:16:55.924Z,95648.63
2022-11-21T07:17:58.830Z,95644.41
2022-11-21T07:19:00.418Z,95648.63
2022-11-21T07:20:02.016Z,95645.19
2022-11-21T07:21:05.842Z,95647.88
2022-11-21T07:22:08.591Z,95645.56
2022-11-21T07:23:10.321Z,95654.03
2022-11-21T07:24:12.266Z,95653.63
2022-11-21T07:25:13.827Z,95645.19
2022-11-21T07:26:15.398Z,95658.66
2022-11-21T07:27:16.923Z,95665.59
2022-11-21T07:28:18.475Z,95653.25
2022-11-21T07:29:19.989Z,95663.25
2022-11-21T07:30:21.511Z,95664.03
2022-11-21T07:31:23.034Z,95667.13
2022-11-21T07:32:26.131Z,95663.28
2022-11-21T07:33:27.882Z,95668.69
2022-11-21T07:34:29.433Z,95672.16
2022-11-21T07:35:31.462Z,95674.84
2022-11-21T07:36:32.984Z,95672.91
2022-11-21T07:37:38.815Z,95669.84
2022-11-21T07:38:41.656Z,95679.91
2022-11-21T07:39:43.530Z,95680.25
2022-11-21T07:40:46.130Z,95684.47
2022-11-21T07:41:47.715Z,95684.06
2022-11-21T07:42:49.239Z,95687.94
2022-11-21T07:43:50.764Z,95681.03
2022-11-21T07:44:52.259Z,95683.75
2022-11-21T07:45:53.785Z,95680.25
2022-11-21T07:46:56.104Z,95684.13
2022-11-21T07:48:01.986Z,95685.63
2022-11-21T07:49:03.973Z,95687.16
2022-11-21T07:50:06.905Z,95683.75
2022-11-21T07:51:08.483Z,95681.78
2022-11-21T07:52:09.982Z,95681.00
2022-11-21T07:53:12.019Z,95687.22
2022-11-21T07:54:13.567Z,95693.38
2022-11-21T07:55:15.176Z,95694.53
2022-11-21T07:56:16.704Z,95693.38
2022-11-21T07:57:18.432Z,95694.16
2022-11-21T07:58:20.003Z,95691.06
2022-11-21T07:59:21.577Z,95691.44
2022-11-21T08:00:23.233Z,95696.47
2022-11-21T08:01:24.823Z,95701.06
2022-11-21T08:02:28.245Z,95698.38
2022-11-21T08:03:29.787Z,95699.91
2022-11-21T08:04:31.433Z,95699.16
2022-11-21T08:05:37.678Z,95704.16
2022-11-21T08:06:39.358Z,95701.09
2022-11-21T08:07:40.949Z,95707.22
2022-11-21T08:08:42.498Z,95708.03
2022-11-21T08:09:44.055Z,95708.78
2022-11-21T08:10:46.981Z,95711.09
2022-11-21T08:11:48.560Z,95710.31
2022-11-21T08:12:50.176Z,95707.25
2022-11-21T08:13:51.771Z,95700.31
2022-11-21T08:14:53.300Z,95711.88
2022-11-21T08:15:54.807Z,95713.41
2022-11-21T08:16:56.370Z,95714.19
2022-11-21T08:17:57.886Z,95713.41
2022-11-21T08:19:00.131Z,95713.41
2022-11-21T08:20:02.625Z,95715.72
2022-11-21T08:21:04.971Z,95711.88
2022-11-21T08:22:06.519Z,95708.78
2022-11-21T08:23:08.310Z,95716.13
2022-11-21T08:24:13.611Z,95716.50
2022-11-21T08:25:15.337Z,95721.88
2022-11-21T08:26:16.950Z,95726.91
2022-11-21T08:27:21.216Z,95718.81
2022-11-21T08:28:22.776Z,95724.97
2022-11-21T08:29:24.347Z,95716.88
2022-11-21T08:30:26.634Z,95713.81
2022-11-21T08:31:28.213Z,95718.03
2022-11-21T08:32:29.720Z,95718.44
2022-11-21T08:33:31.886Z,95722.66
2022-11-21T08:34:33.564Z,95717.25
2022-11-21T08:35:38.150Z,95718.81
2022-11-21T08:36:39.715Z,95729.59
2022-11-21T08:37:41.285Z,95728.06
2022-11-21T08:38:42.792Z,95732.66
2022-11-21T08:39:44.320Z,95721.50
2022-11-21T08:40:45.926Z,95733.84
2022-11-21T08:42:05.659Z,95719.59
2022-11-21T08:43:09.554Z,95728.81
2022-11-21T08:44:14.199Z,95726.50
2022-11-21T08:45:15.948Z,95736.53
2022-11-21T08:46:18.162Z,95737.69
2022-11-21T08:47:20.703Z,95735.75
2022-11-21T08:48:22.266Z,95734.22
2022-11-21T08:49:24.613Z,95729.59
2022-11-21T08:50:28.015Z,95734.22
2022-11-21T08:51:29.718Z,95736.13
2022-11-21T08:52:31.295Z,95735.78
2022-11-21T08:53:32.799Z,95734.22
2022-11-21T08:54:34.425Z,95725.00
2022-11-21T08:55:36.011Z,95737.31
2022-11-21T08:56:37.582Z,95736.53
2022-11-21T08:57:40.424Z,95733.44
2022-11-21T08:58:42.066Z,95734.22
2022-11-21T08:59:43.575Z,95734.22
2022-11-21T09:00:45.171Z,95736.53
2022-11-21T09:01:46.850Z,95741.16
2022-11-21T09:02:48.397Z,95735.78
2022-11-21T09:03:50.154Z,95738.84
2022-11-21T09:04:51.754Z,95734.59
2022-11-21T09:05:55.762Z,95729.97
2022-11-21T09:06:57.343Z,95731.13
2022-11-21T09:07:59.612Z,95731.91
2022-11-21T09:09:01.818Z,95732.69
2022-11-21T09:10:04.009Z,95729.56
2022-11-21T09:11:07.056Z,95724.97
2022-11-21T09:12:08.567Z,95725.75
2022-11-21T09:13:10.141Z,95728.06
2022-11-21T09:14:49.975Z,95725.75
2022-11-21T09:16:10.275Z,95728.81
2022-11-21T09:17:32.194Z,95731.91
2022-11-21T09:18:34.226Z,95726.53
2022-11-21T09:19:35.790Z,95725.75
2022-11-21T09:20:42.756Z,95727.31
2022-11-21T09:21:44.510Z,95726.53
2022-11-21T09:22:47.036Z,95725.75
2022-11-21T09:23:48.739Z,95727.28
2022-11-21T09:24:50.430Z,95725.75
2022-11-21T09:25:52.315Z,95720.75
2022-11-21T09:26:53.915Z,95721.13
2022-11-21T09:28:00.050Z,95724.97
2022-11-21T09:29:01.607Z,95722.66
2022-11-21T09:30:03.496Z,95721.88
2022-11-21T09:31:05.839Z,95718.81
2022-11-21T09:32:07.454Z,95720.34
2022-11-21T09:33:14.335Z,95713.38
2022-11-21T09:34:15.909Z,95712.25
2022-11-21T09:35:17.446Z,95720.75
2022-11-21T09:36:19.029Z,95715.34
2022-11-21T09:37:20.610Z,95720.34
2022-11-21T09:38:24.331Z,95724.19
2022-11-21T09:39:26.309Z,95716.09
2022-11-21T09:40:30.655Z,95719.56
2022-11-21T09:41:53.416Z,95716.06
2022-11-21T09:43:19.755Z,95719.16
2022-11-21T09:44:47.321Z,95723.81
2022-11-21T09:45:51.876Z,95715.72
2022-11-21T09:47:02.825Z,95714.16
2022-11-21T09:48:12.616Z,95721.88
2022-11-21T09:49:16.347Z,95718.00
2022-11-21T09:50:36.530Z,95710.31
2022-11-21T09:51:41.260Z,95708.75
2022-11-21T09:53:09.855Z,95720.34
2022-11-21T09:54:29.108Z,95713.38
2022-11-21T09:55:49.657Z,95710.34
2022-11-21T09:56:53.318Z,95709.56
2022-11-21T09:57:56.923Z,95711.84
2022-11-21T09:59:17.102Z,95713.41
2022-11-21T10:00:24.098Z,95709.56
2022-11-21T10:01:25.862Z,95709.56
2022-11-21T10:02:27.410Z,95702.59
2022-11-21T10:03:48.429Z,95708.00
2022-11-21T10:04:51.763Z,95706.09
2022-11-21T10:06:12.306Z,95702.63
2022-11-21T10:07:30.347Z,95706.47
2022-11-21T10:08:48.935Z,95701.84
2022-11-21T10:10:05.783Z,95702.63
2022-11-21T10:11:36.315Z,95705.72
2022-11-21T10:12:47.496Z,95704.16
2022-11-21T10:14:04.194Z,95701.84
2022-11-21T10:15:58.273Z,95700.28
2022-11-21T10:17:26.869Z,95702.22
2022-11-21T10:19:06.054Z,95702.63
2022-11-21T10:20:27.962Z,95704.16
2022-11-21T10:21:58.209Z,95707.22
2022-11-21T10:23:12.073Z,95705.69
2022-11-21T10:24:24.010Z,95705.69
2022-11-21T10:25:30.534Z,95702.59
2022-11-21T10:26:40.291Z,95700.66
2022-11-21T10:27:53.571Z,95706.44
2022-11-21T10:29:11.023Z,95708.75
2022-11-21T10:30:18.487Z,95704.50
2022-11-21T10:31:21.690Z,95708.72
2022-11-21T10:32:27.563Z,95707.91
2022-11-21T10:33:34.569Z,95709.47
2022-11-21T10:34:38.520Z,95705.59
2022-11-21T10:35:50.204Z,95704.41
2022-11-21T10:36:56.937Z,95699.41
2022-11-21T10:38:01.463Z,95705.94
2022-11-21T10:39:33.329Z,95702.06
2022-11-21T10:40:45.799Z,95696.97
2022-11-21T10:41:58.942Z,95698.44
2022-11-21T10:43:26.219Z,95699.91
2022-11-21T10:44:48.368Z,95697.44
2022-11-21T10:45:50.817Z,95693.09
2022-11-21T10:47:00.084Z,95689.56
2022-11-21T10:48:05.311Z,95689.53
2022-11-21T10:49:13.508Z,95692.97
2022-11-21T10:50:36.407Z,95689.00
2022-11-21T10:51:52.127Z,95680.84
2022-11-21T10:53:36.802Z,95684.69
2022-11-21T10:55:03.201Z,95682.00
2022-11-21T10:56:14.685Z,95687.78
2022-11-21T10:57:20.089Z,95689.34
2022-11-21T10:58:35.659Z,95680.78
2022-11-21T10:59:37.315Z,95685.75
2022-11-21T11:00:57.177Z,95680.31
2022-11-21T11:01:58.770Z,95685.34
2022-11-21T11:03:05.088Z,95680.63
2022-11-21T11:04:44.044Z,95678.25
2022-11-21T11:05:41.562Z,95678.31
2022-11-21T11:06:45.776Z,95676.34
2022-11-21T11:08:07.427Z,95681.75
2022-11-21T11:09:28.618Z,95679.81
2022-11-21T11:10:32.020Z,95679.03
2022-11-21T11:11:34.051Z,95679.38
2022-11-21T11:12:54.106Z,95677.44
2022-11-21T11:14:12.545Z,95682.09
2022-11-21T11:15:25.765Z,95679.31
2022-11-21T11:16:29.767Z,95675.06
2022-11-21T11:17:34.001Z,95667.31
2022-11-21T11:18:47.235Z,95677.00
2022-11-21T11:20:07.814Z,95675.88
2022-11-21T11:21:21.682Z,95676.66
2022-11-21T11:22:30.875Z,95675.06
2022-11-21T11:23:32.389Z,95679.75
2022-11-21T11:24:34.055Z,95669.75
2022-11-21T11:25:36.853Z,95661.25
2022-11-21T11:26:48.549Z,95659.69
2022-11-21T11:27:50.505Z,95661.19
2022-11-21T11:28:52.417Z,95658.88
2022-11-21T11:29:54.116Z,95657.28
2022-11-21T11:30:56.352Z,95662.69
2022-11-21T11:32:00.879Z,95662.69
2022-11-21T11:33:02.446Z,95659.53
2022-11-21T11:34:04.017Z,95659.09
2022-11-21T11:35:14.819Z,95654.81
2022-11-21T11:36:44.624Z,95654.78
2022-11-21T11:37:59.513Z,95649.28
2022-11-21T11:39:09.698Z,95643.03
2022-11-21T11:40:21.842Z,95637.94
2022-11-21T11:41:55.625Z,95639.44
2022-11-21T11:43:24.286Z,95649.84
2022-11-21T11:45:10.185Z,95645.22
2022-11-21T11:46:53.762Z,95646.53
2022-11-21T11:47:58.862Z,95646.03
2022-11-21T11:49:20.236Z,95652.19
2022-11-21T11:50:31.493Z,95646.69
2022-11-21T11:51:45.442Z,95643.66
2022-11-21T11:52:53.359Z,95646.69
2022-11-21T11:54:01.524Z,95647.41
2022-11-21T11:55:08.459Z,95642.75
2022-11-21T11:56:18.135Z,95648.16
2022-11-21T11:57:20.594Z,95648.94
2022-11-21T11:58:31.836Z,95653.59
2022-11-21T11:59:40.117Z,95649.72
2022-11-21T12:00:48.046Z,95644.69
2022-11-21T12:01:52.732Z,95641.19
2022-11-21T12:03:12.767Z,95638.81
2022-11-21T12:04:16.127Z,95638.78
2022-11-21T12:05:26.374Z,95639.50
2022-11-21T12:07:10.654Z,95638.81
2022-11-21T12:08:41.470Z,95646.69
2022-11-21T12:10:05.798Z,95644.47
2022-11-21T12:11:31.075Z,95639.88
2022-11-21T12:12:42.464Z,95639.88
2022-11-21T12:13:44.817Z,95646.13
2022-11-21T12:15:23.981Z,95650.72
2022-11-21T12:16:27.093Z,95650.84
2022-11-21T12:17:56.064Z,95659.03
2022-11-21T12:19:06.623Z,95650.09
2022-11-21T12:20:46.026Z,95653.22
2022-11-21T12:21:48.075Z,95646.41
2022-11-21T12:22:53.354Z,95653.78
2022-11-21T12:23:58.992Z,95655.75
2022-11-21T12:25:00.518Z,95649.56
2022-11-21T12:26:01.992Z,95654.22
2022-11-21T12:27:28.739Z,95655.09
2022-11-21T12:28:57.330Z,95651.34
2022-11-21T12:30:14.792Z,95652.16
2022-11-21T12:31:25.599Z,95650.69
2022-11-21T12:32:47.059Z,95651.91
2022-11-21T12:34:04.088Z,95646.91
2022-11-21T12:35:20.236Z,95656.53
2022-11-21T12:36:44.223Z,95651.53
2022-11-21T12:37:48.569Z,95650.81
2022-11-21T12:38:59.157Z,95652.34
2022-11-21T12:40:23.802Z,95652.31
2022-11-21T12:41:47.161Z,95643.84
2022-11-21T12:43:12.819Z,95645.81
2022-11-21T12:44:29.420Z,95643.84
2022-11-21T12:45:32.064Z,95649.22
2022-11-21T12:46:43.403Z,95645.31
2022-11-21T12:48:20.309Z,95641.47
2022-11-21T12:49:54.568Z,95639.50
2022-11-21T12:51:31.189Z,95643.84
2022-11-21T12:53:08.299Z,95645.41